• Join FlightAware (Why Join?)
  • Login
  • US Flag 
02:39AM EDT


 

Airport Tracker/Info


-or-


 

Live Flight TrackerFlight Track Log ✈ SKW5631 ✈ 13-Dec-2013 ✈ KSFO - KBUR

Flight Track Log - Related Links

Times and Time Zones

All times are in EST time to prevent confusion due to time zone crossing. See the SKW5631 flight status page for this flight to view local times or setup timezone preferences in your user account.

Time Position Orientation Groundspeed Altitude Reporting Facility
EST Latitude Longitude Course Direction KTS MPH feet Rate Location/Type
10:20PM 37.6500 -122.3667 138° Southeast 161 185 1,000  Level Northern Cal TRACON
10:21PM 37.7000 -122.3667 360° North 214 246 2,900 2,340 Climbing Northern Cal TRACON
10:22PM 37.7000 -122.4500 270° West 284 327 5,700 2,580 Climbing Northern Cal TRACON
10:23PM 37.2164 -121.8748 141° Southeast  Level Estimated
10:23PM 37.6167 -122.4667 189° South 306 352 8,100  Level Northern Cal TRACON
10:24PM 37.1154 -121.7505 135° Southeast  Level Estimated
10:24PM 37.5333 -122.4833 189° South 316 364 10,800  Level Northern Cal TRACON
10:25PM 37.0143 -121.6266 138° Southeast  Level Estimated
10:25PM 37.4503 -122.3911 139° Southeast 330 380 13,000  Level Oakland Center
10:26PM 37.3783 -122.3122 139° Southeast 344 396 14,900 1,740 Climbing Oakland Center
10:27PM 37.3031 -122.2275 138° Southeast 361 415 16,600 1,560 Climbing Oakland Center
10:28PM 37.2092 -122.1242 139° Southeast 375 432 18,100 1,560 Climbing Oakland Center
10:29PM 37.1286 -122.0367 139° Southeast 383 441 19,800 1,500 Climbing Oakland Center
10:30PM 37.0464 -121.9464 139° Southeast 392 451 21,200 1,260 Climbing Oakland Center
10:31PM 36.9639 -121.8542 138° Southeast 398 458 22,400 1,080 Climbing Oakland Center
10:32PM 36.8767 -121.7608 139° Southeast 411 473 23,500 1,020 Climbing Oakland Center
10:33PM 36.7947 -121.6708 139° Southeast 415 478 24,500 720 Climbing Oakland Center
10:34PM 36.7064 -121.5756 139° Southeast 420 483 25,000 240 Climbing Oakland Center
10:35PM 36.6158 -121.4761 139° Southeast 431 496 25,000  Level Oakland Center
10:36PM 36.5239 -121.3794 140° Southeast 434 499 25,000  Level Oakland Center
10:37PM 36.4181 -121.2619 138° Southeast 428 493 25,000  Level Oakland Center
10:38PM 36.3278 -121.1669 140° Southeast 425 489 25,000  Level Oakland Center
10:39PM 36.2403 -121.0719 139° Southeast 421 484 25,000  Level Oakland Center
10:40PM 36.1514 -120.9772 139° Southeast 422 486 25,000  Level Oakland Center
10:41PM 36.0642 -120.8833 139° Southeast 418 481 25,000  Level Oakland Center
10:42PM 35.9761 -120.7903 139° Southeast 417 480 25,000  Level Oakland Center
10:43PM 35.8881 -120.6958 139° Southeast 420 483 25,000  Level Oakland Center
10:44PM 35.7997 -120.6025 139° Southeast 420 483 25,000  Level Oakland Center
10:45PM 35.7108 -120.5078 139° Southeast 422 486 25,000  Level Oakland Center
10:46PM 35.6214 -120.4147 140° Southeast 420 483 25,000  Level Oakland Center
10:47PM 35.5319 -120.3214 140° Southeast 418 481 25,000  Level Oakland Center
10:48PM 35.4303 -120.2161 140° Southeast 420 483 25,000  Level Oakland Center
10:49PM 35.3497 -120.1308 139° Southeast 421 484 25,000  Level Oakland Center
10:50PM 35.2600 -120.0381 140° Southeast 419 482 25,000  Level Oakland Center
10:51PM 35.1714 -119.9478 140° Southeast 415 478 25,000 -60 Level Oakland Center
10:52PM 35.0833 -119.8533 139° Southeast 419 482 24,900 -240 Descending Oakland Center
10:53PM 34.9917 -119.7272 132° Southeast 414 476 24,600 -1,320 Descending Oakland Center
10:54PM 34.9119 -119.6217 133° Southeast 421 484 22,300 -2,280 Descending Oakland Center
10:55PM 34.8317 -119.5133 132° Southeast 428 493 20,000 -1,920 Descending Oakland Center
10:56PM 34.8008 -119.4692 130° Southeast 431 496 19,100 -2,100 Descending Los Angeles Center
10:57PM 34.7056 -119.3433 133° Southeast 423 487 16,500 -2,340 Descending Los Angeles Center
10:58PM 34.6325 -119.2439 132° Southeast 398 458 14,400 -2,280 Descending Los Angeles Center
10:59PM 34.5533 -119.1428 134° Southeast 380 437 11,900 -1,740 Descending Los Angeles Center
11:00PM 34.4906 -119.0569 132° Southeast 324 373 10,900 -1,020 Descending Los Angeles Center
11:01PM 34.4381 -118.9817 130° Southeast 291 335 9,900 -1,200 Descending Los Angeles Center
11:02PM 34.3914 -118.9075 127° Southeast 278 320 8,500 -1,200 Descending Los Angeles Center
11:03PM 34.3506 -118.8406 126° Southeast 250 288 7,500 -960 Descending Los Angeles Center
11:04PM 34.3119 -118.7850 130° Southeast 219 252 6,600 -1,020 Descending Los Angeles Center
11:05PM 34.2692 -118.7206 129° Southeast 207 238 5,500 -900 Descending Los Angeles Center
11:06PM 34.2356 -118.6644 126° Southeast 206 237 4,800 -660 Descending Los Angeles Center
11:07PM 34.2092 -118.6067 119° Southeast 204 235 4,200 -720 Descending Los Angeles Center
11:08PM 34.2000 -118.5500 101° East 189 217 3,500 -840 Descending Southern California TRACON
11:09PM 34.2000 -118.4833 90° East 171 197 2,600 -780 Descending Southern California TRACON
11:10PM 34.2000 -118.4333 90° East 145 167 2,000 -780 Descending Southern California TRACON
11:11PM 34.2000 -118.3833 90° East 142 163 1,200 -840 Descending Southern California TRACON